Time;durP1;ratioP1;P1;durP2;ratioP2;P2;SDS_P1;SDS_P2;PMS_P1;PMS_P2;Temp;Humidity;BMP_temperature;BMP_pressure;BME280_temperature;BME280_humidity;BME280_pressure;Samples;Min_cycle;Max_cycle;Signal;HPM_P1;HPM_P2
2022/09/06 00:00:10;;;;;;;;;;;;;;;21.68;79.83;97669.64;586075;242;65093;-69
2022/09/06 00:02:42;;;;;;;;;;;;;;;21.68;79.82;97666.95;584763;242;65620;-69
2022/09/06 00:05:10;;;;;;;;;;;;;;;21.67;79.82;97665.36;582580;243;67072;-69
2022/09/06 00:07:38;;;;;;;;;;;;;;;21.67;79.82;97665.36;582605;243;65063;-69
2022/09/06 00:10:06;;;;;;;;;;;;;;;21.68;79.85;97656.26;582590;243;65325;-69
2022/09/06 00:12:34;;;;;;;;;;;;;;;21.67;79.79;97660.81;582591;243;65105;-69
2022/09/06 00:15:02;;;;;;;;;;;;;;;21.67;79.85;97660.02;582606;243;63827;-69
2022/09/06 00:17:31;;;;;;;;;;;;;;;21.67;79.81;97660.02;582612;243;67265;-69
2022/09/06 00:19:58;;;;;;;;;;;;;;;21.67;79.78;97660.81;582628;243;65178;-71
2022/09/06 00:22:26;;;;;;;;;;;;;;;21.67;79.85;97654.66;582586;243;65093;-71
2022/09/06 00:24:53;;;;;;;;;;;;;;;21.66;79.78;97661.89;582619;243;67266;-69
2022/09/06 00:27:21;;;;;;;;;;;;;;;21.66;79.76;97661.89;582573;243;67282;-69
2022/09/06 00:29:49;;;;;;;;;;;;;;;21.66;79.78;97653.03;582600;243;65091;-69
2022/09/06 00:32:16;;;;;;;;;;;;;;;21.67;79.83;97660.02;582613;243;67187;-68
2022/09/06 00:34:44;;;;;;;;;;;;;;;21.67;79.75;97660.02;582579;243;67234;-68
2022/09/06 00:37:12;;;;;;;;;;;;;;;21.66;79.70;97659.21;582571;243;64968;-69
2022/09/06 00:39:39;;;;;;;;;;;;;;;21.66;79.70;97663.73;582608;243;65061;-69
2022/09/06 00:42:11;;;;;;;;;;;;;;;21.66;79.70;97658.38;582586;243;67108;-69
2022/09/06 00:44:38;;;;;;;;;;;;;;;21.66;79.66;97658.38;582640;243;63087;-69
2022/09/06 00:47:07;;;;;;;;;;;;;;;21.66;79.74;97650.36;582595;243;67218;-68
2022/09/06 00:49:36;;;;;;;;;;;;;;;21.65;79.79;97662.93;582585;243;66885;-68
2022/09/06 00:52:06;;;;;;;;;;;;;;;21.65;79.71;97656.78;582595;243;63050;-68
2022/09/06 00:54:34;;;;;;;;;;;;;;;21.66;79.74;97653.03;582601;243;67420;-68
2022/09/06 00:57:02;;;;;;;;;;;;;;;21.65;79.69;97662.93;582576;243;67409;-68
2022/09/06 00:59:32;;;;;;;;;;;;;;;21.65;79.68;97654.11;582630;243;63063;-69
2022/09/06 01:02:00;;;;;;;;;;;;;;;21.66;79.68;97647.68;582538;242;67306;-69
2022/09/06 01:04:29;;;;;;;;;;;;;;;21.65;79.72;97651.44;582638;243;67070;-69
2022/09/06 01:07:01;;;;;;;;;;;;;;;21.65;79.63;97649.56;582588;243;63009;-69
2022/09/06 01:09:39;;;;;;;;;;;;;;;21.65;79.68;97656.78;582557;242;65134;-69
2022/09/06 01:12:12;;;;;;;;;;;;;;;21.64;79.64;97655.98;582413;243;67035;-68
2022/09/06 01:14:58;;;;;;;;;;;;;;;21.64;79.65;97650.63;582601;240;63859;-69
2022/09/06 01:17:30;;;;;;;;;;;;;;;21.65;79.61;97651.44;582620;243;66976;-69
2022/09/06 01:20:08;;;;;;;;;;;;;;;21.64;79.64;97650.63;582430;243;64975;-69
2022/09/06 01:22:44;;;;;;;;;;;;;;;21.64;79.68;97650.63;582606;243;63038;-69
2022/09/06 01:25:19;;;;;;;;;;;;;;;21.65;79.65;97654.11;582584;243;67474;-69
2022/09/06 01:27:55;;;;;;;;;;;;;;;21.65;79.68;97649.56;582622;243;65028;-69
2022/09/06 01:30:23;;;;;;;;;;;;;;;21.64;79.72;97650.63;582408;242;63109;-68
2022/09/06 01:33:00;;;;;;;;;;;;;;;21.64;79.68;97647.16;582583;243;67189;-68
2022/09/06 01:35:32;;;;;;;;;;;;;;;21.63;79.59;97643.66;582613;243;67091;-69
2022/09/06 01:38:00;;;;;;;;;;;;;;;21.64;79.54;97647.16;582557;239;63039;-68
2022/09/06 01:40:29;;;;;;;;;;;;;;;21.64;79.64;97644.48;582661;243;66988;-68
2022/09/06 01:42:57;;;;;;;;;;;;;;;21.64;79.64;97633.78;582603;243;67049;-69
2022/09/06 01:45:27;;;;;;;;;;;;;;;21.63;79.63;97637.50;582621;240;62973;-68
2022/09/06 01:47:59;;;;;;;;;;;;;;;21.63;79.64;97637.50;582309;243;67455;-68
2022/09/06 01:50:44;;;;;;;;;;;;;;;21.63;79.67;97630.28;582595;242;66985;-68
2022/09/06 01:53:29;;;;;;;;;;;;;;;21.63;79.63;97632.16;582562;242;63115;-68
2022/09/06 01:56:09;;;;;;;;;;;;;;;21.62;79.63;97631.36;582599;243;65123;-68
2022/09/06 01:58:39;;;;;;;;;;;;;;;21.63;79.64;97626.81;582612;239;67125;-69
2022/09/06 02:01:23;;;;;;;;;;;;;;;21.63;79.61;97632.16;582574;243;65280;-69
2022/09/06 02:03:55;;;;;;;;;;;;;;;21.63;79.54;97626.81;582631;242;67316;-69
2022/09/06 02:06:28;;;;;;;;;;;;;;;21.62;79.63;97622.53;582603;242;66563;-68
2022/09/06 02:08:57;;;;;;;;;;;;;;;21.63;79.58;97616.11;582527;242;63243;-68
2022/09/06 02:11:27;;;;;;;;;;;;;;;21.62;79.53;97615.31;582576;242;67247;-68
2022/09/06 02:13:56;;;;;;;;;;;;;;;21.63;79.54;97610.76;582585;243;67104;-69
2022/09/06 02:16:26;;;;;;;;;;;;;;;21.61;79.49;97608.36;582640;243;65564;-69
2022/09/06 02:18:55;;;;;;;;;;;;;;;21.61;79.42;97605.69;582579;243;64773;-69
2022/09/06 02:21:25;;;;;;;;;;;;;;;21.62;79.44;97609.16;582624;243;67009;-69
2022/09/06 02:23:54;;;;;;;;;;;;;;;21.61;79.39;97605.69;582595;243;65127;-68
2022/09/06 02:26:24;;;;;;;;;;;;;;;21.61;79.37;97605.69;582629;243;66866;-68
2022/09/06 02:28:52;;;;;;;;;;;;;;;21.61;79.42;97602.21;582576;243;67111;-68
2022/09/06 02:31:30;;;;;;;;;;;;;;;21.62;79.39;97603.81;582639;243;65119;-69
2022/09/06 02:33:59;;;;;;;;;;;;;;;21.61;79.39;97600.34;582599;243;67077;-68
2022/09/06 02:36:27;;;;;;;;;;;;;;;21.61;79.43;97591.52;582584;243;67026;-69
2022/09/06 02:38:56;;;;;;;;;;;;;;;21.61;79.54;97605.69;582606;243;65178;-68
2022/09/06 02:41:24;;;;;;;;;;;;;;;21.61;79.50;97597.66;582568;243;67531;-69
2022/09/06 02:43:53;;;;;;;;;;;;;;;21.61;79.49;97603.02;582628;243;67092;-69
2022/09/06 02:46:23;;;;;;;;;;;;;;;21.61;79.50;97597.66;582560;243;62993;-69
2022/09/06 02:48:50;;;;;;;;;;;;;;;21.61;79.56;97608.36;582620;243;65114;-69
2022/09/06 02:51:19;;;;;;;;;;;;;;;21.61;79.51;97608.36;582570;243;67135;-69
2022/09/06 02:53:48;;;;;;;;;;;;;;;21.61;79.51;97597.66;582622;243;63077;-69
2022/09/06 02:56:16;;;;;;;;;;;;;;;21.61;79.50;97608.36;582604;243;65750;-69
2022/09/06 02:58:44;;;;;;;;;;;;;;;21.62;79.54;97606.48;582557;243;67182;-69
2022/09/06 03:01:12;;;;;;;;;;;;;;;21.60;79.59;97609.41;582590;243;65081;-69
2022/09/06 03:03:40;;;;;;;;;;;;;;;21.61;79.57;97610.23;582543;242;65113;-69
2022/09/06 03:06:08;;;;;;;;;;;;;;;21.60;79.67;97603.26;582602;243;67157;-69
2022/09/06 03:08:37;;;;;;;;;;;;;;;21.61;79.66;97610.23;582563;243;65099;-69
2022/09/06 03:11:05;;;;;;;;;;;;;;;21.61;79.64;97607.56;582612;243;67225;-69
2022/09/06 03:13:33;;;;;;;;;;;;;;;21.61;79.63;97612.91;582545;243;66495;-69
2022/09/06 03:16:01;;;;;;;;;;;;;;;21.60;79.57;97621.98;582620;243;63005;-68
2022/09/06 03:18:30;;;;;;;;;;;;;;;21.60;79.56;97621.98;582584;243;67370;-68
2022/09/06 03:20:59;;;;;;;;;;;;;;;21.59;79.52;97617.70;582627;243;66853;-68
2022/09/06 03:23:28;;;;;;;;;;;;;;;21.59;79.51;97621.18;582604;243;65099;-68
2022/09/06 03:25:56;;;;;;;;;;;;;;;21.59;79.55;97621.18;582581;243;67363;-68
2022/09/06 03:28:24;;;;;;;;;;;;;;;21.59;79.45;97625.73;582583;243;67509;-68
2022/09/06 03:30:53;;;;;;;;;;;;;;;21.59;79.49;97623.05;582614;243;63057;-68
2022/09/06 03:33:22;;;;;;;;;;;;;;;21.60;79.46;97621.98;582657;243;65136;-68
2022/09/06 03:35:52;;;;;;;;;;;;;;;21.59;79.42;97625.73;582591;243;65063;-68
2022/09/06 03:38:21;;;;;;;;;;;;;;;21.59;79.44;97623.05;582320;242;65258;-68
2022/09/06 03:40:49;;;;;;;;;;;;;;;21.58;79.38;97629.45;582595;243;67490;-69
2022/09/06 03:43:17;;;;;;;;;;;;;;;21.58;79.33;97627.61;582645;243;67083;-69
2022/09/06 03:45:47;;;;;;;;;;;;;;;21.59;79.43;97631.08;582615;243;63216;-69
2022/09/06 03:48:16;;;;;;;;;;;;;;;21.59;79.27;97628.41;582576;243;66948;-68
2022/09/06 03:50:47;;;;;;;;;;;;;;;21.59;79.35;97628.41;582626;243;67082;-69
2022/09/06 03:53:16;;;;;;;;;;;;;;;21.58;79.26;97629.45;582573;243;65166;-68
2022/09/06 03:55:45;;;;;;;;;;;;;;;21.57;79.25;97627.85;582610;243;67660;-68
2022/09/06 03:58:14;;;;;;;;;;;;;;;21.59;79.37;97636.43;582607;243;67073;-68
2022/09/06 04:00:42;;;;;;;;;;;;;;;21.58;79.31;97635.63;582624;243;65090;-69
2022/09/06 04:03:12;;;;;;;;;;;;;;;21.57;79.34;97639.34;582532;240;47015;-68
2022/09/06 04:05:40;;;;;;;;;;;;;;;21.58;79.33;97640.15;582632;243;67096;-69
2022/09/06 04:08:08;;;;;;;;;;;;;;;21.57;79.19;97638.55;582734;243;63227;-69
2022/09/06 04:10:37;;;;;;;;;;;;;;;21.58;79.16;97653.52;582640;243;67311;-69
2022/09/06 04:13:06;;;;;;;;;;;;;;;21.58;79.21;97650.84;582594;243;67110;-69
2022/09/06 04:15:34;;;;;;;;;;;;;;;21.57;79.21;97651.92;582588;243;63026;-69
2022/09/06 04:18:02;;;;;;;;;;;;;;;21.57;79.22;97654.59;582592;240;67125;-71
2022/09/06 04:20:30;;;;;;;;;;;;;;;21.57;79.16;97651.92;582605;243;67151;-69
2022/09/06 04:22:58;;;;;;;;;;;;;;;21.56;79.16;97653.80;582863;236;65091;-69
2022/09/06 04:25:26;;;;;;;;;;;;;;;21.57;79.13;97654.59;582595;243;65140;-69
2022/09/06 04:27:54;;;;;;;;;;;;;;;21.56;79.12;97656.47;582648;243;67056;-69
2022/09/06 04:30:22;;;;;;;;;;;;;;;21.56;79.15;97655.67;582570;243;65178;-69
2022/09/06 04:32:50;;;;;;;;;;;;;;;21.57;79.20;97651.92;582632;243;65140;-69
2022/09/06 04:35:19;;;;;;;;;;;;;;;21.56;79.11;97650.33;582627;243;64755;-69
2022/09/06 04:37:48;;;;;;;;;;;;;;;21.56;79.19;97653.00;582631;243;65111;-69
2022/09/06 04:40:16;;;;;;;;;;;;;;;21.56;79.21;97658.34;582594;243;65113;-68
2022/09/06 04:42:44;;;;;;;;;;;;;;;21.56;79.19;97659.14;582557;243;67446;-69
2022/09/06 04:45:12;;;;;;;;;;;;;;;21.55;79.27;97662.87;582616;243;63008;-69
2022/09/06 04:47:42;;;;;;;;;;;;;;;21.56;79.31;97658.34;582628;243;46911;-69
2022/09/06 04:50:10;;;;;;;;;;;;;;;21.55;79.24;97652.17;582628;243;65138;-69
2022/09/06 04:52:39;;;;;;;;;;;;;;;21.55;79.25;97646.02;582588;243;63084;-69
2022/09/06 04:55:07;;;;;;;;;;;;;;;21.55;79.33;97648.70;582635;243;65097;-69
2022/09/06 04:57:35;;;;;;;;;;;;;;;21.55;79.32;97664.74;582556;243;67167;-69
2022/09/06 05:00:04;;;;;;;;;;;;;;;21.55;79.36;97668.22;582671;243;63093;-68
2022/09/06 05:02:33;;;;;;;;;;;;;;;21.56;79.28;97663.70;581441;240;47639;-68
2022/09/06 05:05:01;;;;;;;;;;;;;;;21.55;79.29;97651.37;579010;245;67087;-69
2022/09/06 05:07:29;;;;;;;;;;;;;;;21.54;79.29;97655.92;578984;245;65042;-69
2022/09/06 05:09:58;;;;;;;;;;;;;;;21.55;79.40;97651.37;578954;245;67430;-69
2022/09/06 05:12:26;;;;;;;;;;;;;;;21.55;79.36;97656.72;579000;245;65283;-69
2022/09/06 05:14:54;;;;;;;;;;;;;;;21.55;79.36;97654.05;578966;245;65017;-69
2022/09/06 05:17:22;;;;;;;;;;;;;;;21.55;79.30;97651.37;578995;245;65028;-69
2022/09/06 05:19:50;;;;;;;;;;;;;;;21.54;79.22;97655.12;578950;245;67006;-69
2022/09/06 05:22:18;;;;;;;;;;;;;;;21.54;79.24;97647.09;578985;245;65109;-69
2022/09/06 05:24:46;;;;;;;;;;;;;;;21.53;79.10;97638.27;578991;245;65040;-68
2022/09/06 05:27:14;;;;;;;;;;;;;;;21.54;79.14;97644.42;578992;245;67046;-68
2022/09/06 05:29:43;;;;;;;;;;;;;;;21.53;79.16;97632.13;578958;245;65024;-68
2022/09/06 05:32:11;;;;;;;;;;;;;;;21.54;78.96;97639.07;578953;245;67272;-68
2022/09/06 05:34:39;;;;;;;;;;;;;;;21.52;79.04;97636.64;578993;245;67073;-68
2022/09/06 05:37:07;;;;;;;;;;;;;;;21.54;79.00;97633.72;578946;245;63038;-68
2022/09/06 05:39:36;;;;;;;;;;;;;;;21.53;78.96;97638.27;578998;245;67199;-69
2022/09/06 05:42:05;;;;;;;;;;;;;;;21.54;78.90;97633.72;578961;245;67173;-69
2022/09/06 05:44:35;;;;;;;;;;;;;;;21.54;79.04;97633.72;579064;245;65241;-69
2022/09/06 05:47:04;;;;;;;;;;;;;;;21.53;79.09;97632.13;578967;245;67240;-69
2022/09/06 05:49:32;;;;;;;;;;;;;;;21.54;79.01;97629.17;578996;245;64854;-69
2022/09/06 05:52:00;;;;;;;;;;;;;;;21.53;79.07;97632.13;578957;245;65156;-68
2022/09/06 05:54:30;;;;;;;;;;;;;;;21.53;79.00;97622.23;579272;245;67276;-72
2022/09/06 05:56:58;;;;;;;;;;;;;;;21.53;77.62;97629.45;578920;245;67471;-67
2022/09/06 05:59:26;;;;;;;;;;;;;;;21.55;75.95;97636.13;578640;245;65048;-65
2022/09/06 06:01:57;;;;;;;;;;;;;;;21.56;76.95;97635.08;579209;240;67357;-64
2022/09/06 06:04:27;;;;;;;;;;;;;;;21.57;77.15;97634.00;586617;238;47133;-66
2022/09/06 06:06:55;;;;;;;;;;;;;;;21.58;77.25;97637.48;594291;238;65584;-67
2022/09/06 06:09:23;;;;;;;;;;;;;;;21.59;77.33;97631.08;594329;238;64991;-67
2022/09/06 06:11:51;;;;;;;;;;;;;;;21.59;77.20;97633.75;594338;238;64914;-66
2022/09/06 06:14:19;;;;;;;;;;;;;;;21.58;76.41;97632.95;594379;238;63014;-66
2022/09/06 06:16:47;;;;;;;;;;;;;;;21.59;75.77;97633.75;594332;238;64311;-66
2022/09/06 06:19:15;;;;;;;;;;;;;;;21.59;76.50;97626.53;594367;238;64810;-70
2022/09/06 06:21:43;;;;;;;;;;;;;;;21.61;76.65;97624.41;594333;238;65198;-67
2022/09/06 06:24:11;;;;;;;;;;;;;;;21.60;76.74;97613.95;594388;238;67243;-66
2022/09/06 06:26:39;;;;;;;;;;;;;;;21.62;76.61;97627.88;594344;238;64750;-65
2022/09/06 06:29:08;;;;;;;;;;;;;;;21.62;76.77;97623.33;594348;238;64956;-67
2022/09/06 06:31:37;;;;;;;;;;;;;;;21.64;76.75;97623.09;594341;238;66760;-69
2022/09/06 06:34:06;;;;;;;;;;;;;;;21.63;75.42;97622.25;591455;238;67012;-66
2022/09/06 06:36:37;;;;;;;;;;;;;;;21.61;74.22;97621.73;586034;242;65008;-66
2022/09/06 06:39:07;;;;;;;;;;;;;;;21.61;72.75;97618.27;586018;242;67283;-66
2022/09/06 06:41:36;;;;;;;;;;;;;;;21.61;73.41;97616.39;586020;242;65161;-66
2022/09/06 06:44:06;;;;;;;;;;;;;;;21.61;73.09;97607.56;585919;242;45235;-66
2022/09/06 06:46:36;;;;;;;;;;;;;;;21.63;72.90;97611.55;586012;242;67225;-66
2022/09/06 06:49:04;;;;;;;;;;;;;;;21.62;72.71;97604.61;590795;239;67108;-65
2022/09/06 06:51:34;;;;;;;;;;;;;;;21.62;72.61;97603.81;592387;239;65080;-65
2022/09/06 06:54:03;;;;;;;;;;;;;;;21.62;72.18;97609.95;592255;239;67380;-65
2022/09/06 06:56:32;;;;;;;;;;;;;;;21.62;72.23;97604.61;592423;239;64992;-67
2022/09/06 06:59:01;;;;;;;;;;;;;;;21.61;70.78;97594.98;592422;239;65008;-67
2022/09/06 07:01:31;;;;;;;;;;;;;;;21.61;70.25;97592.31;592406;239;64991;-66
2022/09/06 07:04:00;;;;;;;;;;;;;;;21.61;70.14;97602.21;589285;239;64871;-63
2022/09/06 07:06:28;;;;;;;;;;;;;;;21.62;70.66;97601.94;588913;241;65136;-68
2022/09/06 07:08:59;;;;;;;;;;;;;;;21.62;69.89;97596.59;588268;241;67255;-63
2022/09/06 07:11:27;;;;;;;;;;;;;;;21.62;70.83;97599.26;576396;246;67529;-67
2022/09/06 07:13:55;;;;;;;;;;;;;;;21.62;70.62;97596.59;576449;246;63018;-68
2022/09/06 07:16:24;;;;;;;;;;;;;;;21.63;70.81;97605.41;576713;241;67245;-66
2022/09/06 07:18:53;;;;;;;;;;;;;;;21.63;70.17;97597.38;588234;241;67234;-66
2022/09/06 07:21:25;;;;;;;;;;;;;;;21.64;70.70;97599.02;588938;241;65056;-65
2022/09/06 07:23:52;;;;;;;;;;;;;;;21.64;71.05;97601.69;588904;237;67259;-65
2022/09/06 07:26:22;;;;;;;;;;;;;;;21.64;71.17;97607.03;583553;241;64980;-63
2022/09/06 07:28:54;;;;;;;;;;;;;;;21.65;70.76;97605.96;582629;243;63029;-66
2022/09/06 07:31:24;;;;;;;;;;;;;;;21.63;70.63;97600.06;581179;235;66862;-67
2022/09/06 07:33:52;;;;;;;;;;;;;;;21.63;71.15;97605.41;572973;247;67011;-66
2022/09/06 07:36:20;;;;;;;;;;;;;;;21.62;69.03;97604.61;573044;247;65001;-66
2022/09/06 07:38:49;;;;;;;;;;;;;;;21.61;71.26;97603.02;573015;247;67513;-66
2022/09/06 07:41:17;;;;;;;;;;;;;;;21.59;71.47;97605.13;573017;247;64980;-71
2022/09/06 07:43:46;;;;;;;;;;;;;;;21.59;72.06;97607.01;573044;245;63195;-66
2022/09/06 07:46:15;;;;;;;;;;;;;;;21.58;72.37;97597.36;572987;247;65114;-67
2022/09/06 07:48:45;;;;;;;;;;;;;;;21.57;72.92;97599.23;573057;247;67024;-67
2022/09/06 07:51:17;;;;;;;;;;;;;;;21.58;71.80;97597.36;573000;247;65134;-66
2022/09/06 07:53:51;;;;;;;;;;;;;;;21.58;71.85;97597.36;573074;247;67347;-66
2022/09/06 07:56:21;;;;;;;;;;;;;;;21.57;72.01;97598.44;573011;247;67092;-66
2022/09/06 07:58:50;;;;;;;;;;;;;;;21.57;72.45;97601.91;572991;247;65181;-66
2022/09/06 08:01:31;;;;;;;;;;;;;;;21.58;72.54;97600.03;572961;247;65170;-66
2022/09/06 08:04:00;;;;;;;;;;;;;;;21.59;72.82;97604.34;572853;247;67848;-66
2022/09/06 08:06:30;;;;;;;;;;;;;;;21.58;73.11;97598.19;573042;247;63034;-68
2022/09/06 08:08:59;;;;;;;;;;;;;;;21.58;73.29;97616.08;572978;247;67270;-66
2022/09/06 08:11:29;;;;;;;;;;;;;;;21.57;73.65;97601.11;573046;247;65011;-67
2022/09/06 08:13:57;;;;;;;;;;;;;;;21.58;73.64;97594.69;572750;247;65147;-68
2022/09/06 08:16:26;;;;;;;;;;;;;;;21.57;73.24;97598.44;573032;247;67244;-65
2022/09/06 08:18:59;;;;;;;;;;;;;;;21.57;73.44;97601.11;573029;247;66860;-67
2022/09/06 08:21:28;;;;;;;;;;;;;;;21.57;73.16;97601.11;572741;247;65145;-68
2022/09/06 08:23:58;;;;;;;;;;;;;;;21.57;72.95;97595.76;573010;247;67284;-67
2022/09/06 08:26:26;;;;;;;;;;;;;;;21.57;73.13;97593.08;572981;247;65436;-67
2022/09/06 08:28:57;;;;;;;;;;;;;;;21.57;73.12;97596.56;573039;247;63020;-69
2022/09/06 08:31:25;;;;;;;;;;;;;;;21.57;73.25;97590.41;572952;247;67338;-69
2022/09/06 08:33:54;;;;;;;;;;;;;;;21.57;73.40;97598.44;572995;247;67129;-68
2022/09/06 08:36:22;;;;;;;;;;;;;;;21.57;73.61;97587.73;569865;247;65096;-68
2022/09/06 08:38:50;;;;;;;;;;;;;;;21.57;73.80;97585.06;563676;251;65155;-68
2022/09/06 08:41:20;;;;;;;;;;;;;;;21.57;73.79;97585.06;563659;251;64955;-68
2022/09/06 08:43:49;;;;;;;;;;;;;;;21.57;74.03;97590.41;563714;251;65130;-67
2022/09/06 08:46:18;;;;;;;;;;;;;;;21.57;74.49;97579.71;563845;251;67017;-69
2022/09/06 08:48:47;;;;;;;;;;;;;;;21.57;75.08;97577.84;563675;251;67072;-70
2022/09/06 08:51:34;;;;;;;;;;;;;;;21.57;75.10;97583.19;563689;251;46418;-66
2022/09/06 08:54:03;;;;;;;;;;;;;;;21.56;74.99;97578.91;563628;249;65340;-70
2022/09/06 08:56:35;;;;;;;;;;;;;;;21.56;75.00;97578.11;563619;250;67095;-70
2022/09/06 08:59:08;;;;;;;;;;;;;;;21.57;74.99;97569.02;563580;250;65116;-70
2022/09/06 09:01:44;;;;;;;;;;;;;;;21.56;74.87;97570.09;563178;250;67219;-70
2022/09/06 09:04:13;;;;;;;;;;;;;;;21.56;74.77;97568.22;563546;250;64982;-70
2022/09/06 09:06:43;;;;;;;;;;;;;;;21.56;74.82;97573.56;563829;251;65130;-69
2022/09/06 09:09:13;;;;;;;;;;;;;;;21.56;74.94;97565.54;563688;251;65157;-70
2022/09/06 09:11:43;;;;;;;;;;;;;;;21.55;74.92;97571.14;563631;251;65781;-69
2022/09/06 09:14:12;;;;;;;;;;;;;;;21.56;75.21;97573.56;563665;251;65068;-69
2022/09/06 09:16:41;;;;;;;;;;;;;;;21.56;74.97;97562.06;563625;251;67330;-70
2022/09/06 09:19:09;;;;;;;;;;;;;;;21.56;75.02;97562.87;563721;251;67122;-69
2022/09/06 09:21:43;;;;;;;;;;;;;;;21.55;74.92;97555.09;563637;251;65051;-71
2022/09/06 09:24:09;;;;;;;;;;;;;;;21.56;75.05;97556.72;563533;251;65174;-70
2022/09/06 09:26:52;;;;;;;;;;;;;;;21.56;74.74;97551.37;563638;251;67103;-70
2022/09/06 09:29:20;;;;;;;;;;;;;;;21.57;73.97;97547.62;563542;250;65190;-69
2022/09/06 09:31:50;;;;;;;;;;;;;;;21.61;74.87;97551.39;563601;251;67264;-69
2022/09/06 09:34:32;;;;;;;;;;;;;;;21.63;75.19;97549.23;563660;251;67368;-69
2022/09/06 09:37:13;;;;;;;;;;;;;;;21.63;75.33;97547.36;563679;251;65093;-70
2022/09/06 09:39:41;;;;;;;;;;;;;;;21.65;75.61;97539.09;563654;251;67300;-69
2022/09/06 09:42:09;;;;;;;;;;;;;;;21.66;75.86;97540.69;563663;251;67392;-71
2022/09/06 09:44:39;;;;;;;;;;;;;;;21.66;75.96;97540.69;563671;251;65055;-68
2022/09/06 09:47:23;;;;;;;;;;;;;;;21.68;76.17;97538.56;563421;250;67244;-67
2022/09/06 09:49:51;;;;;;;;;;;;;;;21.68;76.29;97538.56;563652;251;67179;-67
2022/09/06 09:52:20;;;;;;;;;;;;;;;21.68;76.54;97533.21;563618;251;63096;-66
2022/09/06 09:54:52;;;;;;;;;;;;;;;21.69;76.56;97530.28;563642;250;67226;-68
2022/09/06 09:57:18;;;;;;;;;;;;;;;21.68;76.33;97531.34;563574;250;65234;-66
2022/09/06 09:59:54;;;;;;;;;;;;;;;21.68;75.10;97530.53;563691;251;63045;-70
2022/09/06 10:02:26;;;;;;;;;;;;;;;21.67;75.66;97532.41;563619;251;64239;-69
2022/09/06 10:04:55;;;;;;;;;;;;;;;21.66;76.10;97521.97;563839;251;65176;-70
2022/09/06 10:07:24;;;;;;;;;;;;;;;21.65;76.44;97528.39;563521;250;65292;-69
2022/09/06 10:10:09;;;;;;;;;;;;;;;21.64;76.22;97524.12;563647;251;65425;-69
2022/09/06 10:12:38;;;;;;;;;;;;;;;21.64;76.03;97524.12;563629;250;64943;-69
2022/09/06 10:15:08;;;;;;;;;;;;;;;21.62;75.83;97521.70;563631;251;65053;-69
2022/09/06 10:17:37;;;;;;;;;;;;;;;21.63;75.44;97517.14;563650;251;65308;-70
2022/09/06 10:20:07;;;;;;;;;;;;;;;21.62;75.23;97523.57;563630;251;65224;-69
2022/09/06 10:22:51;;;;;;;;;;;;;;;21.61;75.46;97521.97;563660;251;63925;-68
2022/09/06 10:25:21;;;;;;;;;;;;;;;21.60;75.34;97515.80;563573;250;66949;-70
2022/09/06 10:27:53;;;;;;;;;;;;;;;21.61;75.36;97513.95;563641;248;64868;-70
2022/09/06 10:30:21;;;;;;;;;;;;;;;21.60;75.35;97515.00;563538;250;63109;-70
2022/09/06 10:32:51;;;;;;;;;;;;;;;21.60;75.44;97512.32;567358;246;66959;-69
2022/09/06 10:35:20;;;;;;;;;;;;;;;21.59;75.33;97506.17;569888;246;64833;-69
2022/09/06 10:38:06;;;;;;;;;;;;;;;21.59;75.40;97508.05;569748;249;65094;-70
2022/09/06 10:40:36;;;;;;;;;;;;;;;21.60;75.33;97505.09;569779;247;64807;-69
2022/09/06 10:43:07;;;;;;;;;;;;;;;21.59;75.35;97506.17;569733;242;64782;-70
2022/09/06 10:45:55;;;;;;;;;;;;;;;21.60;75.43;97504.30;569785;249;63085;-68
2022/09/06 10:48:27;;;;;;;;;;;;;;;21.57;73.83;97502.16;569727;249;66957;-68
2022/09/06 10:50:57;;;;;;;;;;;;;;;21.59;75.29;97500.83;569771;249;66915;-68
2022/09/06 10:53:35;;;;;;;;;;;;;;;21.59;74.99;97502.70;569755;249;63219;-68
2022/09/06 10:56:05;;;;;;;;;;;;;;;21.58;74.90;97498.40;569688;246;65169;-69
2022/09/06 10:58:34;;;;;;;;;;;;;;;21.59;75.39;97500.03;569685;249;67400;-69
2022/09/06 11:01:04;;;;;;;;;;;;;;;21.58;76.03;97501.91;569711;246;65061;-70
2022/09/06 11:03:33;;;;;;;;;;;;;;;21.58;76.56;97495.73;569756;249;67298;-66
2022/09/06 11:06:04;;;;;;;;;;;;;;;21.58;76.34;97491.20;570861;248;45913;-67
2022/09/06 11:08:35;;;;;;;;;;;;;;;21.58;76.58;97490.38;569722;242;65097;-67
2022/09/06 11:11:05;;;;;;;;;;;;;;;21.57;75.89;97486.11;569698;249;65045;-66
2022/09/06 11:13:34;;;;;;;;;;;;;;;21.55;75.55;97490.91;569678;246;67281;-66
2022/09/06 11:16:13;;;;;;;;;;;;;;;21.55;75.38;97490.91;569747;249;63013;-67
2022/09/06 11:18:42;;;;;;;;;;;;;;;21.55;75.02;97488.23;568806;249;67040;-66
2022/09/06 11:21:14;;;;;;;;;;;;;;;21.55;74.80;97486.36;569750;249;64961;-67
2022/09/06 11:23:47;;;;;;;;;;;;;;;21.54;75.32;97482.08;569687;249;65087;-65
2022/09/06 11:26:22;;;;;;;;;;;;;;;21.55;74.57;97482.88;569755;249;67461;-63
2022/09/06 11:29:00;;;;;;;;;;;;;;;21.53;74.41;97468.99;569849;242;67084;-63
2022/09/06 11:31:30;;;;;;;;;;;;;;;21.55;74.23;97477.53;569679;248;62994;-64
2022/09/06 11:34:06;;;;;;;;;;;;;;;21.53;74.12;97472.47;569739;249;67308;-64
2022/09/06 11:36:35;;;;;;;;;;;;;;;21.54;74.07;97470.59;569712;246;67034;-64
2022/09/06 11:39:04;;;;;;;;;;;;;;;21.54;74.24;97476.73;569735;249;63008;-66
2022/09/06 11:41:34;;;;;;;;;;;;;;;21.54;73.89;97470.59;568084;249;65168;-66
2022/09/06 11:44:02;;;;;;;;;;;;;;;21.53;74.00;97464.44;563770;251;67179;-65
2022/09/06 11:46:36;;;;;;;;;;;;;;;21.54;74.21;97468.72;563749;251;63067;-66
2022/09/06 11:49:07;;;;;;;;;;;;;;;21.54;74.13;97470.59;563784;251;67465;-66
2022/09/06 11:51:39;;;;;;;;;;;;;;;21.53;74.37;97467.12;563744;251;65095;-65
2022/09/06 11:54:09;;;;;;;;;;;;;;;21.54;74.72;97462.56;563730;251;63023;-65
2022/09/06 11:56:38;;;;;;;;;;;;;;;21.54;74.45;97454.55;563784;251;67410;-70
2022/09/06 11:59:20;;;;;;;;;;;;;;;21.53;74.06;97455.63;563659;251;67004;-70
2022/09/06 12:01:50;;;;;;;;;;;;;;;21.53;74.35;97460.97;563803;251;65102;-70
2022/09/06 12:04:18;;;;;;;;;;;;;;;21.54;74.63;97451.88;559791;251;65161;-69
2022/09/06 12:07:04;;;;;;;;;;;;;;;21.54;74.66;97451.88;563812;251;64862;-69
2022/09/06 12:09:34;;;;;;;;;;;;;;;21.54;74.60;97455.34;563748;251;65193;-69
2022/09/06 12:12:02;;;;;;;;;;;;;;;21.54;74.50;97451.88;567409;249;67282;-69
2022/09/06 12:14:34;;;;;;;;;;;;;;;21.53;74.63;97445.72;569544;249;65412;-69
2022/09/06 12:17:05;;;;;;;;;;;;;;;21.53;74.91;97444.92;569260;249;65309;-69
2022/09/06 12:19:51;;;;;;;;;;;;;;;21.54;75.02;97458.02;569757;249;67384;-69
2022/09/06 12:22:29;;;;;;;;;;;;;;;21.52;74.45;97449.45;569713;249;65103;-69
2022/09/06 12:24:58;;;;;;;;;;;;;;;21.52;73.98;97449.45;569788;249;65489;-69
2022/09/06 12:27:28;;;;;;;;;;;;;;;21.52;73.71;97449.45;569722;249;67295;-69
2022/09/06 12:29:58;;;;;;;;;;;;;;;21.50;73.23;97447.05;569773;249;67209;-69
2022/09/06 12:32:27;;;;;;;;;;;;;;;21.52;73.07;97448.65;569750;248;65157;-69
2022/09/06 12:34:56;;;;;;;;;;;;;;;21.51;73.04;97442.50;569732;249;64826;-70
2022/09/06 12:37:32;;;;;;;;;;;;;;;21.52;73.07;97443.30;569770;249;65164;-71
2022/09/06 12:40:01;;;;;;;;;;;;;;;21.52;73.29;97445.97;569697;246;65164;-71
2022/09/06 12:42:29;;;;;;;;;;;;;;;21.52;74.09;97438.75;569758;249;65494;-71
2022/09/06 12:44:58;;;;;;;;;;;;;;;21.52;73.99;97437.95;569708;249;67058;-70
2022/09/06 12:47:28;;;;;;;;;;;;;;;21.52;73.54;97433.41;569728;249;64979;-72
2022/09/06 12:50:10;;;;;;;;;;;;;;;21.52;73.54;97432.60;569686;249;67411;-70
2022/09/06 12:52:45;;;;;;;;;;;;;;;21.51;73.50;97426.45;569720;249;64469;-72
2022/09/06 12:55:17;;;;;;;;;;;;;;;21.52;73.54;97430.73;569743;249;65072;-68
2022/09/06 12:57:53;;;;;;;;;;;;;;;21.52;73.68;97432.60;569726;249;67167;-70
2022/09/06 13:00:22;;;;;;;;;;;;;;;21.52;74.53;97428.05;569764;249;67215;-68
2022/09/06 13:02:51;;;;;;;;;;;;;;;21.54;74.67;97430.48;569709;249;63117;-73